< < Back
Terminal Aerodrome Forecast


Current Version              Previous Versions:   1  2  3  4  5  6  7  8  9  

Terminal Aerodrome Forecast

801
FTUS42 KGSP 262339
TAFHKY
TAF
KHKY 262339Z 2700/2724 VRB04KT P6SM FEW030 BKN035
     FM270400 00000KT P6SM SCT025 BKN030
     FM270900 00000KT P6SM SCT035 BKN050
     FM271300 35003KT P6SM BKN050=



Latest METAR

431
SAUS70 KWBC 271700 RRB
MTRHKY
METAR KHKY 271653Z VRB03KT 10SM BKN041 05/M04 A3036 RMK AO2 SLP277
T00501044


USA.gov is the U.S. government's official web portal to all federal, state and local government web resources and services.